createdAt,value
2023-05-09T00:01:04.678Z,118.9
2023-05-09T00:03:02.348Z,128.2
2023-05-09T00:04:59.831Z,140.3
2023-05-09T00:07:05.333Z,139.6
2023-05-09T00:12:58.139Z,137.2
2023-05-09T00:16:53.335Z,123.8
2023-05-09T00:20:56.373Z,136.3
2023-05-09T00:24:51.525Z,128.9
2023-05-09T00:25:54.301Z,138.5
2023-05-09T00:31:47.073Z,120.1
2023-05-09T00:37:47.757Z,128.9
2023-05-09T00:39:45.299Z,123.7
2023-05-09T00:41:42.899Z,119.2
2023-05-09T00:45:38.063Z,120.4
2023-05-09T00:49:41.148Z,116.2
2023-05-09T00:51:38.707Z,138
2023-05-09T00:53:36.323Z,122.5
2023-05-09T00:55:33.921Z,144
2023-05-09T00:57:31.473Z,125.5
2023-05-09T01:01:34.613Z,133.8
2023-05-09T01:03:32.217Z,141.2
2023-05-09T01:07:27.336Z,135.6
2023-05-09T01:09:24.899Z,136
2023-05-09T01:11:22.493Z,148.6
2023-05-09T01:13:20.147Z,135.3
2023-05-09T01:15:25.593Z,130.3
2023-05-09T01:17:23.173Z,123.7
2023-05-09T01:19:20.750Z,125.8
2023-05-09T01:20:23.498Z,118
2023-05-09T01:24:18.718Z,110.2
2023-05-09T01:30:19.352Z,121.3
2023-05-09T01:32:16.927Z,114.5
2023-05-09T01:34:14.503Z,105
2023-05-09T01:36:12.116Z,112.3
2023-05-09T01:40:07.307Z,126.4
2023-05-09T01:42:12.754Z,109.1
2023-05-09T01:44:10.423Z,132.5
2023-05-09T01:46:08.034Z,113
2023-05-09T01:48:05.542Z,123.6
2023-05-09T01:50:03.125Z,112.9
2023-05-09T01:52:00.676Z,104
2023-05-09T01:53:58.219Z,111.4
2023-05-09T01:56:03.756Z,135.8
2023-05-09T01:58:01.322Z,100.5
2023-05-09T01:59:58.903Z,130.3
2023-05-09T02:01:56.565Z,119.9
2023-05-09T02:03:54.049Z,110.3
2023-05-09T02:05:51.629Z,122
2023-05-09T02:09:55.310Z,106.8
2023-05-09T02:11:52.905Z,103.3
2023-05-09T02:16:17.435Z,109.2
2023-05-09T02:18:14.991Z,110.4
2023-05-09T02:24:15.692Z,106.6
2023-05-09T02:26:13.236Z,131.8
2023-05-09T02:32:06.000Z,111.5
2023-05-09T02:34:03.578Z,91.5
2023-05-09T02:36:09.043Z,95.4
2023-05-09T02:38:06.654Z,106
2023-05-09T02:40:04.219Z,112.9
2023-05-09T02:42:01.790Z,114.5
2023-05-09T02:43:59.355Z,117.8
2023-05-09T02:47:54.642Z,123.2
2023-05-09T02:50:00.130Z,120.3
2023-05-09T02:51:57.657Z,102.7
2023-05-09T02:53:55.225Z,98.7
2023-05-09T02:55:52.823Z,116.1
2023-05-09T02:57:56.227Z,106.2
2023-05-09T03:01:45.690Z,112.9
2023-05-09T03:03:51.174Z,103.1
2023-05-09T03:05:48.649Z,100.4
2023-05-09T03:14:41.737Z,118.6
2023-05-09T03:16:47.241Z,103.3
2023-05-09T03:18:44.860Z,129.3
2023-05-09T03:20:42.416Z,91.6
2023-05-09T03:22:40.053Z,109.3
2023-05-09T03:24:37.644Z,96.6
2023-05-09T03:26:35.203Z,92.5
2023-05-09T03:30:38.304Z,100.2
2023-05-09T03:34:33.470Z,84.2
2023-05-09T03:36:31.084Z,80.8
2023-05-09T03:38:28.684Z,77
2023-05-09T03:50:22.112Z,85.5
2023-05-09T03:52:19.722Z,78.5
2023-05-09T03:54:17.311Z,79.2
2023-05-09T03:56:14.914Z,82.4
2023-05-09T04:00:17.976Z,86.1
2023-05-09T04:02:15.617Z,89.5
2023-05-09T04:07:13.522Z,85.4
2023-05-09T04:09:11.116Z,76.6
2023-05-09T04:11:16.594Z,81
2023-05-09T04:13:14.183Z,88.1
2023-05-09T04:17:09.528Z,79.3
2023-05-09T04:23:02.116Z,89.6
2023-05-09T04:29:02.814Z,74.1
2023-05-09T04:32:57.985Z,77.1
2023-05-09T04:34:55.526Z,86.4
2023-05-09T04:38:58.623Z,101.5
2023-05-09T04:44:52.955Z,87
2023-05-09T04:48:48.063Z,91
2023-05-09T04:54:48.739Z,99.1
2023-05-09T04:56:47.391Z,89.3
2023-05-09T04:57:49.083Z,96.3
2023-05-09T05:01:44.324Z,77.2
2023-05-09T05:17:32.859Z,71.9
2023-05-09T05:23:33.563Z,76.2
2023-05-09T05:25:31.153Z,77.8
2023-05-09T05:27:28.745Z,80.8
2023-05-09T05:29:26.320Z,93.3
2023-05-09T05:31:23.943Z,80.9
2023-05-09T05:33:29.438Z,74.6
2023-05-09T05:35:27.022Z,74.3
2023-05-09T05:39:22.185Z,65.1
2023-05-09T05:41:19.733Z,70.7
2023-05-09T05:43:17.322Z,88.6
2023-05-09T05:45:15.166Z,83.1
2023-05-09T05:47:20.459Z,57.3
2023-05-09T05:49:18.014Z,65
2023-05-09T05:51:15.574Z,62.7
2023-05-09T05:55:40.042Z,66.3
2023-05-09T05:59:43.153Z,73.8
2023-05-09T06:01:40.851Z,57.1
2023-05-09T06:03:38.346Z,69.7
2023-05-09T06:07:33.444Z,58.3
2023-05-09T06:11:28.616Z,59.4
2023-05-09T06:13:34.125Z,84.2
2023-05-09T06:15:31.717Z,60.2
2023-05-09T06:19:26.888Z,50.8
2023-05-09T06:21:24.493Z,69
2023-05-09T06:23:22.111Z,48.4
2023-05-09T06:25:19.674Z,51
2023-05-09T06:27:25.200Z,60
2023-05-09T06:29:22.759Z,49.7
2023-05-09T06:31:20.402Z,44
2023-05-09T06:33:17.925Z,47.6
2023-05-09T06:37:13.136Z,48.4
2023-05-09T06:39:10.687Z,50.5
2023-05-09T06:41:16.172Z,68.1
2023-05-09T06:43:13.767Z,53.2
2023-05-09T06:46:14.119Z,56
2023-05-09T06:50:09.228Z,52.3
2023-05-09T06:52:06.844Z,58.4
2023-05-09T06:54:12.329Z,60.9
2023-05-09T06:56:09.935Z,50.6
2023-05-09T06:58:07.516Z,45.7
2023-05-09T07:00:05.071Z,41
2023-05-09T07:02:02.741Z,43.1
2023-05-09T07:04:00.228Z,43.3
2023-05-09T07:05:57.809Z,46.3
2023-05-09T07:08:03.290Z,50.8
2023-05-09T07:11:58.434Z,37.2
2023-05-09T07:13:55.986Z,42.3
2023-05-09T07:17:51.241Z,41.3
2023-05-09T07:19:48.729Z,30.8
2023-05-09T07:21:54.248Z,50.7
2023-05-09T07:29:44.488Z,29.3
2023-05-09T07:37:42.682Z,27
2023-05-09T07:44:38.174Z,37
2023-05-09T07:48:41.246Z,28.4
2023-05-09T07:52:36.395Z,32
2023-05-09T07:54:33.950Z,33.4
2023-05-09T08:00:26.637Z,32.4
2023-05-09T08:02:32.235Z,34.1
2023-05-09T08:04:29.753Z,28
2023-05-09T08:06:27.271Z,30.2
2023-05-09T08:08:24.839Z,28.7
2023-05-09T08:24:13.308Z,43.9
2023-05-09T08:26:10.829Z,31.6
2023-05-09T08:28:08.412Z,29.2
2023-05-09T08:30:13.883Z,24.8
2023-05-09T08:32:11.432Z,21.1
2023-05-09T08:34:08.988Z,19.4
2023-05-09T08:45:07.472Z,79.1
2023-05-09T08:47:05.161Z,22.6
2023-05-09T08:49:02.568Z,21.8
2023-05-09T08:51:00.146Z,24.9
2023-05-09T08:52:57.658Z,34.1
2023-05-09T08:54:55.220Z,20.4
2023-05-09T08:57:00.732Z,20.1
2023-05-09T08:58:58.252Z,25.9
2023-05-09T09:02:53.618Z,23.5
2023-05-09T09:04:50.923Z,44.1
2023-05-09T09:06:48.442Z,20.2
2023-05-09T09:08:45.988Z,61.4
2023-05-09T09:10:51.496Z,43.2
2023-05-09T09:12:50.233Z,55.5
2023-05-09T09:14:46.604Z,42.5
2023-05-09T09:16:44.191Z,34.3
2023-05-09T09:18:41.722Z,145.4
2023-05-09T09:20:39.267Z,30.7
2023-05-09T09:22:36.806Z,69.8
2023-05-09T09:33:01.805Z,32.1
2023-05-09T09:34:59.250Z,21.9
2023-05-09T09:37:04.789Z,23.8
2023-05-09T09:39:02.268Z,20.8
2023-05-09T09:40:59.825Z,24.6
2023-05-09T09:42:57.356Z,23.7
2023-05-09T09:44:54.879Z,21.6
2023-05-09T09:46:52.442Z,39.2
2023-05-09T09:48:49.986Z,21.7
2023-05-09T09:50:55.463Z,26.3
2023-05-09T09:52:53.032Z,28.7
2023-05-09T09:54:50.548Z,15.6
2023-05-09T09:56:48.113Z,18.8
2023-05-09T10:02:40.818Z,25.9
2023-05-09T10:06:43.763Z,20.2
2023-05-09T10:10:38.895Z,17.6
2023-05-09T10:12:36.455Z,18.3
2023-05-09T10:14:35.303Z,14.9
2023-05-09T10:16:42.736Z,22
2023-05-09T10:18:37.370Z,12.5
2023-05-09T10:20:34.623Z,22.2
2023-05-09T10:22:32.166Z,16.2
2023-05-09T10:23:34.904Z,15.5
2023-05-09T10:25:34.043Z,15.7
2023-05-09T10:49:20.515Z,8.8
2023-05-09T10:55:13.423Z,15.3
2023-05-09T10:57:10.737Z,7.2
2023-05-09T10:59:16.201Z,7.2
2023-05-09T11:03:11.390Z,12.3
2023-05-09T11:05:08.831Z,19
2023-05-09T11:17:02.091Z,10.3
2023-05-09T11:18:04.894Z,8
2023-05-09T11:21:59.917Z,12.2
2023-05-09T11:26:02.941Z,16.8
2023-05-09T11:28:00.500Z,8.9
2023-05-09T11:29:58.060Z,13
2023-05-09T11:33:53.162Z,8.4
2023-05-09T11:37:48.366Z,8.1
2023-05-09T11:39:53.774Z,9.4
2023-05-09T11:41:51.337Z,12.1
2023-05-09T11:47:44.086Z,9.4
2023-05-09T11:49:41.605Z,11.3
2023-05-09T11:51:39.158Z,11.1
2023-05-09T11:53:44.627Z,12.4
2023-05-09T11:55:42.187Z,11.9
2023-05-09T11:57:39.773Z,11.4
2023-05-09T11:59:37.339Z,11.4
2023-05-09T12:03:32.556Z,9.6
2023-05-09T12:05:30.025Z,10
2023-05-09T12:07:35.570Z,9.4
2023-05-09T12:09:33.139Z,9.2
2023-05-09T12:11:30.671Z,9.3
2023-05-09T12:12:33.404Z,9
2023-05-09T12:14:30.988Z,8.1
2023-05-09T12:18:26.129Z,7.3
2023-05-09T12:20:31.644Z,20.5
2023-05-09T12:22:29.203Z,9.1
2023-05-09T12:24:26.832Z,8.4
2023-05-09T12:26:24.378Z,7.4
2023-05-09T12:30:19.578Z,8.5
2023-05-09T12:32:17.139Z,11.7
2023-05-09T12:34:22.660Z,12.1
2023-05-09T12:36:20.231Z,15.5
2023-05-09T12:38:17.834Z,9.9
2023-05-09T12:40:15.586Z,7.3
2023-05-09T12:42:12.999Z,10.5
2023-05-09T12:44:10.621Z,11.1
2023-05-09T12:46:08.185Z,9.7
2023-05-09T12:48:13.721Z,18.2
2023-05-09T12:50:11.283Z,5.1
2023-05-09T12:56:03.984Z,4.8
2023-05-09T12:58:01.861Z,4.4
2023-05-09T12:59:59.138Z,7.8
2023-05-09T13:02:04.758Z,5
2023-05-09T13:04:02.259Z,6.3
2023-05-09T13:08:26.693Z,5.3
2023-05-09T13:16:25.021Z,5.8
2023-05-09T13:18:22.498Z,4.4
2023-05-09T13:20:20.103Z,6
2023-05-09T13:22:17.674Z,8.6
2023-05-09T13:24:15.258Z,5.9
2023-05-09T13:26:12.889Z,4.7
2023-05-09T13:28:18.320Z,4.4
2023-05-09T13:30:16.258Z,8.7
2023-05-09T13:32:13.459Z,5.8
2023-05-09T13:34:11.025Z,5.9
2023-05-09T13:36:08.586Z,9.1
2023-05-09T13:38:06.204Z,5
2023-05-09T13:44:06.856Z,10.3
2023-05-09T13:48:02.090Z,8.2
2023-05-09T13:49:59.608Z,4.5
2023-05-09T13:51:57.183Z,5
2023-05-09T13:53:54.794Z,4.3
2023-05-09T13:56:00.276Z,3.2
2023-05-09T13:57:57.882Z,5.4
2023-05-09T14:00:58.219Z,4.6
2023-05-09T14:02:55.858Z,8.1
2023-05-09T14:04:53.344Z,2.2
2023-05-09T14:06:50.938Z,5.3
2023-05-09T14:08:56.424Z,3
2023-05-09T14:18:44.353Z,3.6
2023-05-09T14:20:41.926Z,2.8
2023-05-09T14:22:47.424Z,2.1
2023-05-09T14:24:44.992Z,6.2
2023-05-09T14:26:42.529Z,10
2023-05-09T14:32:35.362Z,7.1
2023-05-09T14:34:32.947Z,10
2023-05-09T14:36:38.470Z,9.4
2023-05-09T14:40:33.614Z,6.1
2023-05-09T14:44:28.780Z,16.6
2023-05-09T14:46:26.479Z,14
2023-05-09T14:48:23.992Z,7.9
2023-05-09T14:50:29.476Z,8.8
2023-05-09T14:52:27.062Z,12.8
2023-05-09T14:54:24.627Z,5.2
2023-05-09T14:55:27.394Z,3
2023-05-09T14:57:24.992Z,4.2
2023-05-09T14:59:22.584Z,7
2023-05-09T15:01:20.264Z,4.8
2023-05-09T15:03:25.699Z,4.9
2023-05-09T15:05:23.303Z,10.2
2023-05-09T15:07:20.898Z,9.9
2023-05-09T15:09:18.479Z,6.1
2023-05-09T15:11:16.094Z,7.8
2023-05-09T15:13:13.758Z,6.1
2023-05-09T15:15:11.267Z,12
2023-05-09T15:17:16.749Z,39.2
2023-05-09T15:19:14.382Z,27.9
2023-05-09T15:23:09.566Z,3
2023-05-09T15:25:07.117Z,14.6
2023-05-09T15:27:04.686Z,15.9
2023-05-09T15:29:02.295Z,4.3
2023-05-09T15:33:05.542Z,4.3
2023-05-09T15:37:00.575Z,8.8
2023-05-09T15:38:58.123Z,12.8
2023-05-09T15:40:55.739Z,4.3
2023-05-09T15:42:53.327Z,7.7
2023-05-09T15:44:58.846Z,9.4
2023-05-09T15:46:56.421Z,2.9
2023-05-09T15:51:54.347Z,4.7
2023-05-09T15:53:51.937Z,7.3
2023-05-09T15:57:55.032Z,6
2023-05-09T16:01:50.236Z,4.1
2023-05-09T16:07:44.546Z,8.4
2023-05-09T16:09:42.081Z,12.2
2023-05-09T16:11:47.628Z,6.8
2023-05-09T16:13:45.209Z,6.8
2023-05-09T16:17:40.385Z,8.2
2023-05-09T16:19:37.983Z,9.9
2023-05-09T16:21:35.587Z,29.7
2023-05-09T16:25:38.675Z,11.5
2023-05-09T16:27:36.245Z,9.6
2023-05-09T16:29:33.844Z,62.4
2023-05-09T16:33:29.005Z,21.1
2023-05-09T16:35:26.604Z,7.6
2023-05-09T16:39:29.714Z,8.3
2023-05-09T16:45:45.574Z,6.5
2023-05-09T16:47:43.189Z,8.3
2023-05-09T16:51:46.268Z,19.8
2023-05-09T16:53:43.837Z,6
2023-05-09T16:55:41.418Z,7.3
2023-05-09T16:57:39.022Z,6.6
2023-05-09T17:01:34.255Z,9.4
2023-05-09T17:03:31.820Z,11.3
2023-05-09T17:05:37.299Z,29.8
2023-05-09T17:07:34.891Z,9.4
2023-05-09T17:09:32.518Z,13.1
2023-05-09T17:11:30.046Z,75.4
2023-05-09T17:15:25.247Z,112.9
2023-05-09T17:19:28.344Z,54.7
2023-05-09T17:29:16.294Z,7.9
2023-05-09T17:35:16.989Z,14.1
2023-05-09T17:37:14.575Z,7.7
2023-05-09T17:38:17.356Z,7.8
2023-05-09T17:44:10.055Z,11.1
2023-05-09T17:46:15.565Z,7.6
2023-05-09T17:48:13.145Z,7.1
2023-05-09T17:52:08.332Z,6.6
2023-05-09T17:54:05.923Z,7.4
2023-05-09T17:56:03.546Z,8.7
2023-05-09T17:58:01.121Z,7.7
2023-05-09T18:00:06.633Z,7.6
2023-05-09T18:02:04.277Z,19.5
2023-05-09T18:04:01.881Z,11.5
2023-05-09T18:07:56.964Z,20.1
2023-05-09T18:11:52.184Z,8.1
2023-05-09T18:17:52.901Z,11.7
2023-05-09T18:19:50.473Z,8.4
2023-05-09T18:21:48.054Z,7.2
2023-05-09T18:25:43.231Z,8
2023-05-09T18:27:48.720Z,18.6
2023-05-09T18:32:46.676Z,7.8
2023-05-09T18:34:44.270Z,10.3
2023-05-09T18:36:41.840Z,8.6
2023-05-09T18:40:44.941Z,9.2
2023-05-09T18:42:42.518Z,10.4
2023-05-09T18:44:40.091Z,8.9
2023-05-09T18:48:35.244Z,10.8
2023-05-09T18:50:32.830Z,9.7
2023-05-09T18:54:35.931Z,10.7
2023-05-09T18:56:33.543Z,14.6
2023-05-09T19:02:26.324Z,10.6
2023-05-09T19:10:24.536Z,11
2023-05-09T19:12:22.147Z,11.8
2023-05-09T19:14:19.693Z,17.4
2023-05-09T19:18:14.929Z,132.6
2023-05-09T19:20:12.545Z,241.3
2023-05-09T19:22:17.996Z,23.1
2023-05-09T19:24:15.554Z,56.6
2023-05-09T19:26:13.180Z,15
2023-05-09T19:27:15.909Z,27.3
2023-05-09T19:37:11.800Z,9.9
2023-05-09T19:41:06.975Z,10.8
2023-05-09T19:43:04.600Z,13.7
2023-05-09T19:46:59.744Z,13.5
2023-05-09T19:49:05.267Z,12.8
2023-05-09T19:51:02.867Z,21.7
2023-05-09T19:53:00.430Z,16.7
2023-05-09T19:54:58.058Z,21.1
2023-05-09T19:56:55.639Z,12.5
2023-05-09T20:04:53.978Z,10.3
2023-05-09T20:10:46.716Z,13.7
2023-05-09T20:14:41.896Z,14.3
2023-05-09T20:16:47.445Z,14.2
2023-05-09T20:18:45.042Z,17.8
2023-05-09T20:27:04.747Z,19.9
2023-05-09T20:29:10.269Z,18.4
2023-05-09T20:33:05.469Z,25.8
2023-05-09T20:37:00.632Z,18.1
2023-05-09T20:40:55.798Z,18.4
2023-05-09T20:43:01.316Z,17.1
2023-05-09T20:44:58.913Z,26
2023-05-09T20:46:56.496Z,18.7
2023-05-09T20:48:54.141Z,16.9
2023-05-09T20:54:46.904Z,23.2
2023-05-09T20:56:52.434Z,21.8
2023-05-09T20:58:50.054Z,21.7
2023-05-09T21:02:45.326Z,20.1
2023-05-09T21:06:40.366Z,19.6
2023-05-09T21:15:41.437Z,20.2
2023-05-09T21:17:39.081Z,16.5
2023-05-09T21:19:36.612Z,19.2
2023-05-09T21:21:34.221Z,18.9
2023-05-09T21:23:39.717Z,20.1
2023-05-09T21:25:37.324Z,18.9
2023-05-09T21:27:34.909Z,25.4
2023-05-09T21:29:32.492Z,19.2
2023-05-09T21:31:30.179Z,19.3
2023-05-09T21:35:25.268Z,14.3
2023-05-09T21:39:28.392Z,11.4
2023-05-09T21:43:23.545Z,12.2
2023-05-09T21:45:21.126Z,17.4
2023-05-09T21:49:17.890Z,9.1
2023-05-09T21:53:20.922Z,5.9
2023-05-09T21:55:18.517Z,13.6
2023-05-09T21:57:16.122Z,8
2023-05-09T21:59:13.709Z,5.2
2023-05-09T22:01:11.317Z,6.4
2023-05-09T22:03:09.042Z,7.4
2023-05-09T22:05:14.455Z,11.8
2023-05-09T22:07:12.033Z,6.5
2023-05-09T22:10:12.390Z,6.9
2023-05-09T22:12:09.973Z,4.7
2023-05-09T22:16:05.252Z,5.8
2023-05-09T22:18:10.687Z,5.8
2023-05-09T22:20:08.286Z,3.9
2023-05-09T22:22:05.884Z,4.1
2023-05-09T22:24:03.528Z,3.8
2023-05-09T22:32:01.859Z,8.4
2023-05-09T22:33:59.405Z,7.4
2023-05-09T22:43:47.372Z,5.7
2023-05-09T22:47:50.627Z,7
2023-05-09T22:49:48.127Z,5.2
2023-05-09T22:51:45.744Z,6.1
2023-05-09T22:53:43.349Z,8.5
2023-05-09T22:55:40.934Z,5.9
2023-05-09T22:57:38.557Z,24.4
2023-05-09T22:59:44.043Z,7.4
2023-05-09T23:01:41.764Z,5.7
2023-05-09T23:03:39.357Z,22.1
2023-05-09T23:04:42.014Z,11.1
2023-05-09T23:06:39.593Z,11.4
2023-05-09T23:08:37.182Z,11
2023-05-09T23:10:34.787Z,7.7
2023-05-09T23:12:40.281Z,12.4
2023-05-09T23:14:37.890Z,21.3
2023-05-09T23:16:35.497Z,8.4
2023-05-09T23:18:33.088Z,12.5
2023-05-09T23:20:30.671Z,17.6
2023-05-09T23:24:25.890Z,9.2
2023-05-09T23:28:29.023Z,12.1
2023-05-09T23:30:26.591Z,15
2023-05-09T23:32:24.193Z,13.1
2023-05-09T23:34:21.813Z,11.7
2023-05-09T23:44:17.729Z,11.2
2023-05-09T23:46:15.375Z,15.1
2023-05-09T23:48:12.948Z,14.5
2023-05-09T23:50:10.531Z,17.4
2023-05-09T23:52:08.150Z,17.1
2023-05-09T23:54:13.670Z,12.6
2023-05-09T23:56:11.260Z,16.7
2023-05-09T23:58:08.848Z,12.1
